Terminal Aerodrome Forecast
Issued by NWS

Home | Current Version | Previous Version | Text Only | Print | Product List | Glossary On
Versions: 1 2 3 4 5 6 7 8 9 10 11 12 13 14 15 16 17 18 19 20 21 22
000
FTUS41 KBUF 270525
TAFJHW
TAF
KJHW 270525Z 2706/2806 19009KT 6SM -SHRA BKN060
      TEMPO 2709/2712 BKN025
     FM271200 22009KT P6SM VCSH BKN045
     FM271700 23014G20KT P6SM SCT035
     FM272300 21009KT P6SM VCSH SCT045
     FM280000 21009KT 6SM -SHRA VCTS BKN045CB
     FM280300 22010KT 4SM BR VCSH BKN045
      AMD LTD TO CLD VIS AND WIND=

USA.gov is the U.S. government's official web portal to all federal, state and local government web resources and services.